Airfield :
LOGIN :

Register | Disclaimer

   EN    FR    IT 

 










Legend :    VFR   Marginal VFR   IFR   Intensive IFR   Very Intensive IFR
Visi :
Ceiling :
>= 8 km
>= 3000ft
5 to 8 km
1000 to 3000 ft
1500m to 5 km
500 to 1000 ft
800 to 1500m
200 to 500 ft
< 800m
< 200 ft
Symbols :   Thunderstorms  Fog  Heavy snow  Heavy precipitations  Wind > 20 kt
SIGMETs :     Misc.  Thunderstorms  Icing  Turbulence  Mountain Waves  Volcanic Ashes







- Airport Elevation : 28 ft
- IATA code : SOZ
- Download approach charts


LFKS - Solenzara

CURRENT METAR :
  • 190100Z AUTO 28006KT 250V310 9999 BKN033 BKN044 OVC072 09/05 Q1010

EXPIRED METARs :
  • 190030Z AUTO 28006KT 250V310 9999 SCT034 BKN047 BKN074 08/05 Q1010
  • 190000Z AUTO 28006KT 9999 BKN033 BKN045 OVC072 08/05 Q1010
  • 182330Z AUTO 27006KT 9999 BKN072 08/05 Q1010
  • 182300Z AUTO 28005KT 9999 BKN068 08/05 Q1011
  • 182230Z AUTO 30006KT 270V340 9999 FEW045 BKN070 08/04 Q1011

Expired Forecast.
No reported NOTAMs for that airfield.



MET'MAP, your aeronautical weather chart ! - Copyright ORBIFLY December 2007 - Disclaimer

ORBIFLY MET'MAP TEAM :

Programming & Development : Alexandra Zaïnal
Concept & Development : Baudouin d'Aumeries
Co-Development & Prog : Marc-Olivier Méhu
Technical & hardware support : Manuel Goepfert

Contact : metmap@orbifly.com




SOURCES & CREDITS :

   NOAA